Pagrindinis puslapis
METAR-TAF:

METAR-TAF

Oro uostai :

Džeksonvilis, Florida, Jungtinės Amerikos Valstijos

platuma: 30-13-07N, ilguma: 081-52-36W, Aukštis: 25 m

Dabartinis oras

Ataskaita buvo paskelbta 16 minutes, ne 08:15 UTC
Vėjas 8 kt iš Vakarų/Šiaurės Vakarų su gūsio iki 15 kt
Temperatūra 8°C
Drėgmė 76%
Slėgis 1018 hPa
Matomumas: 16.1 km
Giedras dangus

METAR: KVQQ 270815Z AUTO 29008G15KT 10SM CLR 08/04 A3005 RMK AO2

Laikas: 03:31 (08:31 UTC)

Prognozė

Ataskaita buvo paskelbta 3 valandos ir 11 minutes, ne 05:20 UTC
Prognozė galioja nuo 27 metu 06 UTC su 28 metu 06 UTC
Vėjas 10 kt iš Vakarų/Šiaurės Vakarų su gūsio iki 15 kt
Matomumas: 10 km
Išsisklaidę debesys ne aukštis 15000 ft
Su prošvaistėmis ne aukštis 25000 ft
Nuo 27 metu 2300 UTC
Vėjas 2 kt iš Šiaurės Vakarų
Matomumas: 10 km
Giedras dangus

TAF: KVQQ 270520Z 2706/2806 30010G15KT P6SM SCT150 BKN250 FM272300 31002KT P6SM SKC

Orai ataskaitas ir orų prognozės (METAR, TAF).

turimą stotys yra geltonos ir raudonos taškus žemėlapyje.

Perkelti pele per norėdami pamatyti stoties vardą.

Tada spustelėkite, norėdami matyti oro stebėjimo ir prognozės.

Norėdami pakeisti žemėlapį: spustelėkite ant žalios mygtukų su juodo kryžiaus žemyn,; žalią mygtuką su brūkšneliu, jei norite nutolinti; arba žalių rodyklių gretimoms žemėlapius.


METAR-TAF: